Dry Fork, Utah
Current Conditions -  °F | °C
As of 6:53 AM on Thursday 29 Jan 2015 (Local Time) from KVEL Reporting Station
Broken Clouds Broken Clouds  
Wind Chill: 31°   Ceiling: 6500
Heat Index: 31°   Visibility: 10mi
Dew Point: 27°   Wind: 0mph
Humidity: 85%   Direction: NA
Pressure: 30.39"   Gusts: NA
Location:  40.1055°N, 109.498°W
Report Text: KVEL 291353Z AUTO 00000KT 10SM BKN065 M01/M03 A3039 RMK AO2 SLP302 T10061028
Loading
Personal Weather Stations






























Interactive Weather Map New forecast layout! Learn more

10-Day Weather Forecast

Advertisements
Track Severe Weather on mobile